createdAt,value
2023-04-18T00:03:02.417Z,80.25
2023-04-18T00:06:06.996Z,80.54
2023-04-18T00:09:09.260Z,80.03
2023-04-18T00:12:12.776Z,80.19
2023-04-18T00:15:15.061Z,80.04
2023-04-18T00:18:17.417Z,80.08
2023-04-18T00:21:20.100Z,80.18
2023-04-18T00:24:22.344Z,80.36
2023-04-18T00:27:24.636Z,81.07
2023-04-18T00:30:27.160Z,80.77
2023-04-18T00:33:29.444Z,80.80
2023-04-18T00:36:31.828Z,80.56
2023-04-18T00:39:35.629Z,80.58
2023-04-18T00:42:37.901Z,80.36
2023-04-18T00:45:40.196Z,80.43
2023-04-18T00:48:42.651Z,79.82
2023-04-18T00:51:45.563Z,80.42
2023-04-18T00:54:48.213Z,80.40
2023-04-18T00:57:51.102Z,79.95
2023-04-18T01:00:54.780Z,79.35
2023-04-18T01:03:57.095Z,79.50
2023-04-18T01:07:01.044Z,79.60
2023-04-18T01:10:05.560Z,79.29
2023-04-18T01:13:15.096Z,79.32
2023-04-18T01:16:17.627Z,78.76
2023-04-18T01:19:20.044Z,78.43
2023-04-18T01:22:22.623Z,78.38
2023-04-18T01:25:25.151Z,79.03
2023-04-18T01:28:27.880Z,78.52
2023-04-18T01:31:36.059Z,79.28
2023-04-18T01:34:38.436Z,79.03
2023-04-18T01:37:41.548Z,79.23
2023-04-18T01:40:44.153Z,78.64
2023-04-18T01:43:47.156Z,78.74
2023-04-18T01:46:49.450Z,78.95
2023-04-18T01:49:51.984Z,79.35
2023-04-18T01:52:54.216Z,78.72
2023-04-18T01:55:58.406Z,78.99
2023-04-18T01:59:00.730Z,79.06
2023-04-18T02:02:03.761Z,79.34
2023-04-18T02:05:06.671Z,79.50
2023-04-18T02:08:09.002Z,79.21
2023-04-18T02:11:13.086Z,78.69
2023-04-18T02:14:15.843Z,78.85
2023-04-18T02:17:18.456Z,78.77
2023-04-18T02:20:20.932Z,79.22
2023-04-18T02:23:23.244Z,78.78
2023-04-18T02:26:25.798Z,78.17
2023-04-18T02:29:28.139Z,78.93
2023-04-18T02:32:30.642Z,78.11
2023-04-18T02:35:32.919Z,77.84
2023-04-18T02:38:35.396Z,78.22
2023-04-18T02:41:39.324Z,77.91
2023-04-18T02:44:41.646Z,77.50
2023-04-18T02:47:54.401Z,77.03
2023-04-18T02:51:05.545Z,76.81
2023-04-18T02:54:10.256Z,77.89
2023-04-18T02:57:25.969Z,77.48
2023-04-18T03:00:55.468Z,77.43
2023-04-18T03:04:26.940Z,77.46
2023-04-18T03:07:41.029Z,77.83
2023-04-18T03:10:43.261Z,77.59
2023-04-18T03:13:46.076Z,78.16
2023-04-18T03:16:50.448Z,78.02
2023-04-18T03:19:57.979Z,78.26
2023-04-18T03:23:00.477Z,79.03
2023-04-18T03:26:08.862Z,78.45
2023-04-18T03:29:14.271Z,78.19
2023-04-18T03:32:19.858Z,79.28
2023-04-18T03:35:22.364Z,78.14
2023-04-18T03:38:25.436Z,77.90
2023-04-18T03:41:28.912Z,77.87
2023-04-18T03:44:34.148Z,79.18
2023-04-18T03:47:36.542Z,79.38
2023-04-18T03:50:38.884Z,79.54
2023-04-18T03:53:44.643Z,80.29
2023-04-18T03:56:46.957Z,81.27
2023-04-18T03:59:50.335Z,82.01
2023-04-18T04:02:52.902Z,81.87
2023-04-18T04:05:56.997Z,81.59
2023-04-18T04:08:59.472Z,81.03
2023-04-18T04:12:03.521Z,81.28
2023-04-18T04:15:06.525Z,82.64
2023-04-18T04:18:10.106Z,82.92
2023-04-18T04:21:15.978Z,83.84
2023-04-18T04:24:23.561Z,84.12
2023-04-18T04:27:27.101Z,83.62
2023-04-18T04:30:30.597Z,83.97
2023-04-18T04:33:34.061Z,83.13
2023-04-18T04:36:41.312Z,83.52
2023-04-18T04:39:46.181Z,83.17
2023-04-18T04:43:12.511Z,82.48
2023-04-18T04:46:16.118Z,82.11
2023-04-18T04:49:18.750Z,81.18
2023-04-18T04:52:21.228Z,81.06
2023-04-18T04:55:24.587Z,81.74
2023-04-18T04:58:27.173Z,81.09
2023-04-18T05:01:35.192Z,80.61
2023-04-18T05:04:37.871Z,79.88
2023-04-18T05:07:40.335Z,79.56
2023-04-18T05:10:43.397Z,80.15
2023-04-18T05:13:45.836Z,79.01
2023-04-18T05:16:48.148Z,78.38
2023-04-18T05:19:51.162Z,77.77
2023-04-18T05:22:53.640Z,77.88
2023-04-18T05:25:56.073Z,77.00
2023-04-18T05:28:58.387Z,77.13
2023-04-18T05:32:01.708Z,74.57
2023-04-18T05:35:04.404Z,75.24
2023-04-18T05:38:06.962Z,75.21
2023-04-18T05:41:09.383Z,76.10
2023-04-18T05:44:11.717Z,74.09
2023-04-18T05:47:14.007Z,73.55
2023-04-18T05:50:16.395Z,73.27
2023-04-18T05:53:18.991Z,72.94
2023-04-18T05:56:21.475Z,72.58
2023-04-18T05:59:24.031Z,72.01
2023-04-18T06:02:26.663Z,71.38
2023-04-18T06:05:29.864Z,72.06
2023-04-18T06:08:32.478Z,71.29
2023-04-18T06:11:35.732Z,71.76
2023-04-18T06:14:38.185Z,71.48
2023-04-18T06:17:41.587Z,70.68
2023-04-18T06:20:45.373Z,71.34
2023-04-18T06:23:48.150Z,70.82
2023-04-18T06:26:50.464Z,70.77
2023-04-18T06:29:52.754Z,69.96
2023-04-18T06:32:55.089Z,69.77
2023-04-18T06:35:58.081Z,69.23
2023-04-18T06:39:00.638Z,68.79
2023-04-18T06:42:04.832Z,68.43
2023-04-18T06:45:07.671Z,68.10
2023-04-18T06:48:10.892Z,67.57
2023-04-18T06:51:14.200Z,66.40
2023-04-18T06:54:16.715Z,66.67
2023-04-18T06:57:19.277Z,67.00
2023-04-18T07:00:21.894Z,66.53
2023-04-18T07:03:24.383Z,65.79
2023-04-18T07:06:27.483Z,66.21
2023-04-18T07:09:29.771Z,67.53
2023-04-18T07:12:32.289Z,66.57
2023-04-18T07:15:36.223Z,66.12
2023-04-18T07:18:38.764Z,66.73
2023-04-18T07:21:43.787Z,66.77
2023-04-18T07:24:46.328Z,66.40
2023-04-18T07:27:48.550Z,66.21
2023-04-18T07:30:51.542Z,66.10
2023-04-18T07:33:54.728Z,66.26
2023-04-18T07:36:57.674Z,66.19
2023-04-18T07:40:00.236Z,66.46
2023-04-18T07:43:02.779Z,66.07
2023-04-18T07:46:06.338Z,66.50
2023-04-18T07:49:08.650Z,66.68
2023-04-18T07:52:10.983Z,66.65
2023-04-18T07:55:16.094Z,66.78
2023-04-18T07:58:18.526Z,66.24
2023-04-18T08:01:24.232Z,65.15
2023-04-18T08:04:29.068Z,64.10
2023-04-18T08:07:32.348Z,61.47
2023-04-18T08:10:36.437Z,61.07
2023-04-18T08:13:38.966Z,60.14
2023-04-18T08:16:41.508Z,57.60
2023-04-18T08:19:45.989Z,54.84
2023-04-18T08:23:05.209Z,56.00
2023-04-18T08:26:09.177Z,56.68
2023-04-18T08:29:13.062Z,56.19
2023-04-18T08:32:15.659Z,55.25
2023-04-18T08:35:17.925Z,54.97
2023-04-18T08:38:20.297Z,56.57
2023-04-18T08:41:25.760Z,56.42
2023-04-18T08:44:29.820Z,57.94
2023-04-18T08:47:35.397Z,57.35
2023-04-18T08:50:37.866Z,58.33
2023-04-18T08:53:42.763Z,57.82
2023-04-18T08:56:45.886Z,57.65
2023-04-18T08:59:50.870Z,57.69
2023-04-18T09:02:59.435Z,56.86
2023-04-18T09:06:13.990Z,57.00
2023-04-18T09:09:17.006Z,55.91
2023-04-18T09:12:24.411Z,55.39
2023-04-18T09:15:29.454Z,53.61
2023-04-18T09:18:32.632Z,49.60
2023-04-18T09:21:36.177Z,47.49
2023-04-18T09:24:39.027Z,43.68
2023-04-18T09:27:41.994Z,44.34
2023-04-18T09:30:44.490Z,48.13
2023-04-18T09:33:57.535Z,48.25
2023-04-18T09:37:10.072Z,49.41
2023-04-18T09:40:19.714Z,49.39
2023-04-18T09:43:22.836Z,48.59
2023-04-18T09:46:27.457Z,47.73
2023-04-18T09:49:30.165Z,48.74
2023-04-18T09:52:36.019Z,46.99
2023-04-18T09:55:42.199Z,48.44
2023-04-18T09:58:48.166Z,47.40
2023-04-18T10:01:51.576Z,44.13
2023-04-18T10:04:55.685Z,43.37
2023-04-18T10:07:59.928Z,44.24
2023-04-18T10:11:02.639Z,44.23
2023-04-18T10:14:09.849Z,44.02
2023-04-18T10:17:14.978Z,44.11
2023-04-18T10:20:20.462Z,48.63
2023-04-18T10:23:42.068Z,47.91
2023-04-18T10:26:47.706Z,48.38
2023-04-18T10:29:54.277Z,45.36
2023-04-18T10:32:56.668Z,44.72
2023-04-18T10:36:03.179Z,43.15
2023-04-18T10:39:26.297Z,43.54
2023-04-18T10:42:47.470Z,44.14
2023-04-18T10:46:31.715Z,43.54
2023-04-18T11:05:10.262Z,40.62
2023-04-18T11:08:25.710Z,40.90
2023-04-18T11:11:27.996Z,41.63
2023-04-18T11:14:44.063Z,41.52
2023-04-18T11:17:46.599Z,40.92
2023-04-18T11:20:53.189Z,41.85
2023-04-18T11:23:56.769Z,41.90
2023-04-18T11:27:00.364Z,43.26
2023-04-18T11:30:03.057Z,43.21
2023-04-18T11:33:10.076Z,43.46
2023-04-18T11:36:13.384Z,43.13
2023-04-18T11:39:15.918Z,43.74
2023-04-18T11:42:18.260Z,43.80
2023-04-18T11:45:20.912Z,43.77
2023-04-18T11:48:24.009Z,43.24
2023-04-18T11:51:35.838Z,43.81
2023-04-18T11:54:38.846Z,43.21
2023-04-18T11:57:42.012Z,42.81
2023-04-18T12:00:44.528Z,43.79
2023-04-18T12:04:06.810Z,43.28
2023-04-18T12:07:09.603Z,43.11
2023-04-18T12:10:21.111Z,43.27
2023-04-18T12:13:32.420Z,42.37
2023-04-18T12:16:35.127Z,40.93
2023-04-18T12:19:38.010Z,42.33
2023-04-18T12:22:49.585Z,42.20
2023-04-18T12:26:08.489Z,41.23
2023-04-18T12:29:11.739Z,40.08
2023-04-18T12:32:14.145Z,41.88
2023-04-18T12:35:18.976Z,40.22
2023-04-18T12:38:22.415Z,37.82
2023-04-18T12:41:24.732Z,37.09
2023-04-18T12:44:27.081Z,36.50
2023-04-18T12:47:29.985Z,36.73
2023-04-18T12:50:32.885Z,36.66
2023-04-18T12:53:35.277Z,36.88
2023-04-18T12:56:37.909Z,36.35
2023-04-18T12:59:40.220Z,36.07
2023-04-18T13:02:44.546Z,35.37
2023-04-18T13:05:47.548Z,35.30
2023-04-18T13:08:50.033Z,35.20
2023-04-18T13:11:52.832Z,34.99
2023-04-18T13:14:55.223Z,35.03
2023-04-18T13:17:57.640Z,35.15
2023-04-18T13:21:00.147Z,34.16
2023-04-18T13:24:02.463Z,34.64
2023-04-18T13:27:10.412Z,34.53
2023-04-18T13:30:13.060Z,35.19
2023-04-18T13:33:17.736Z,34.84
2023-04-18T13:36:20.063Z,34.31
2023-04-18T13:39:24.562Z,33.38
2023-04-18T13:42:26.859Z,33.70
2023-04-18T13:45:29.234Z,33.25
2023-04-18T13:48:31.548Z,32.91
2023-04-18T13:51:34.682Z,33.53
2023-04-18T13:54:37.970Z,33.08
2023-04-18T13:57:41.251Z,32.26
2023-04-18T14:00:43.627Z,31.70
2023-04-18T14:03:47.572Z,31.07
2023-04-18T14:06:50.547Z,31.35
2023-04-18T14:09:53.950Z,32.35
2023-04-18T14:12:57.275Z,32.40
2023-04-18T14:16:00.326Z,31.87
2023-04-18T14:19:02.760Z,31.17
2023-04-18T14:22:05.359Z,30.52
2023-04-18T14:25:10.870Z,30.26
2023-04-18T14:28:13.257Z,29.00
2023-04-18T14:31:16.302Z,28.15
2023-04-18T14:34:18.574Z,28.31
2023-04-18T14:37:21.286Z,28.28
2023-04-18T14:40:24.126Z,28.66
2023-04-18T14:43:27.256Z,29.33
2023-04-18T14:46:30.657Z,28.67
2023-04-18T14:49:33.783Z,28.61
2023-04-18T14:52:36.315Z,30.39
2023-04-18T14:55:39.138Z,30.96
2023-04-18T14:58:41.606Z,31.91
2023-04-18T15:01:43.917Z,31.61
2023-04-18T15:04:46.372Z,31.63
2023-04-18T15:07:48.799Z,32.01
2023-04-18T15:10:51.134Z,31.78
2023-04-18T15:13:53.459Z,31.56
2023-04-18T15:16:56.049Z,31.58
2023-04-18T15:19:59.294Z,31.72
2023-04-18T15:23:02.890Z,31.93
2023-04-18T15:26:05.310Z,32.23
2023-04-18T15:29:07.870Z,32.82
2023-04-18T15:32:10.392Z,31.88
2023-04-18T15:35:12.933Z,32.09
2023-04-18T15:38:15.954Z,33.31
2023-04-18T15:41:18.462Z,33.42
2023-04-18T15:44:21.633Z,33.86
2023-04-18T15:47:23.938Z,33.20
2023-04-18T15:50:26.262Z,34.01
2023-04-18T15:53:28.668Z,33.80
2023-04-18T15:56:33.757Z,33.63
2023-04-18T15:59:36.331Z,33.63
2023-04-18T16:02:38.950Z,34.49
2023-04-18T16:05:41.488Z,34.19
2023-04-18T16:08:43.836Z,34.95
2023-04-18T16:11:46.083Z,34.16
2023-04-18T16:14:48.375Z,34.72
2023-04-18T16:17:50.692Z,35.16
2023-04-18T16:20:53.196Z,35.34
2023-04-18T16:23:55.847Z,35.37
2023-04-18T16:26:58.645Z,34.76
2023-04-18T16:30:01.189Z,35.62
2023-04-18T16:33:04.282Z,35.13
2023-04-18T16:36:07.222Z,35.01
2023-04-18T16:39:09.522Z,35.46
2023-04-18T16:42:14.051Z,35.78
2023-04-18T16:45:17.967Z,36.17
2023-04-18T16:48:20.720Z,36.31
2023-04-18T16:51:23.227Z,35.93
2023-04-18T16:54:25.507Z,36.27
2023-04-18T16:57:28.053Z,36.50
2023-04-18T17:00:30.442Z,36.65
2023-04-18T17:03:33.270Z,36.52
2023-04-18T17:06:35.736Z,36.32
2023-04-18T17:09:38.072Z,36.58
2023-04-18T17:12:40.777Z,37.01
2023-04-18T17:15:44.013Z,37.42
2023-04-18T17:18:46.435Z,37.26
2023-04-18T17:21:51.054Z,37.72
2023-04-18T17:24:53.733Z,37.98
2023-04-18T17:27:56.045Z,38.48
2023-04-18T17:30:58.650Z,38.42
2023-04-18T17:34:01.203Z,38.88
2023-04-18T17:37:03.482Z,39.21
2023-04-18T17:40:09.992Z,39.06
2023-04-18T17:43:12.858Z,40.46
2023-04-18T17:46:15.508Z,41.00
2023-04-18T17:49:17.789Z,42.58
2023-04-18T17:52:21.449Z,42.67
2023-04-18T17:55:24.258Z,43.12
2023-04-18T17:58:27.357Z,44.16
2023-04-18T18:01:30.571Z,44.24
2023-04-18T18:04:33.133Z,44.36
2023-04-18T18:07:37.573Z,44.60
2023-04-18T18:10:41.160Z,44.80
2023-04-18T18:13:44.356Z,44.26
2023-04-18T18:16:47.028Z,44.18
2023-04-18T18:19:49.480Z,43.97
2023-04-18T18:22:54.038Z,44.61
2023-04-18T18:25:57.062Z,44.72
2023-04-18T18:28:59.413Z,44.65
2023-04-18T18:32:01.886Z,44.70
2023-04-18T18:35:06.061Z,45.01
2023-04-18T18:38:08.891Z,44.52
2023-04-18T18:41:11.158Z,44.69
2023-04-18T18:44:13.422Z,44.23
2023-04-18T18:47:17.197Z,44.14
2023-04-18T18:50:19.624Z,43.92
2023-04-18T18:53:22.318Z,44.25
2023-04-18T18:56:25.413Z,44.83
2023-04-18T18:59:27.746Z,46.12
2023-04-18T19:02:30.078Z,45.56
2023-04-18T19:05:32.529Z,46.98
2023-04-18T19:08:35.459Z,45.99
2023-04-18T19:11:39.126Z,46.42
2023-04-18T19:14:42.456Z,45.92
2023-04-18T19:17:44.977Z,45.88
2023-04-18T19:20:47.499Z,44.87
2023-04-18T19:23:49.925Z,44.55
2023-04-18T19:26:52.689Z,44.66
2023-04-18T19:29:55.045Z,43.91
2023-04-18T19:32:57.474Z,44.55
2023-04-18T19:35:59.817Z,44.87
2023-04-18T19:39:02.092Z,44.77
2023-04-18T19:42:05.249Z,44.59
2023-04-18T19:45:07.981Z,44.78
2023-04-18T19:48:10.608Z,45.28
2023-04-18T19:51:12.961Z,44.97
2023-04-18T19:54:15.411Z,44.25
2023-04-18T19:57:17.784Z,44.62
2023-04-18T20:00:25.210Z,44.42
2023-04-18T20:03:27.867Z,44.83
2023-04-18T20:06:31.104Z,44.35
2023-04-18T20:09:33.458Z,44.58
2023-04-18T20:12:35.912Z,44.04
2023-04-18T20:15:38.840Z,44.04
2023-04-18T20:18:41.881Z,44.25
2023-04-18T20:21:44.366Z,44.13
2023-04-18T20:24:48.739Z,44.80
2023-04-18T20:27:51.835Z,45.17
2023-04-18T20:30:54.303Z,44.77
2023-04-18T20:33:56.680Z,44.62
2023-04-18T20:37:00.078Z,45.37
2023-04-18T20:40:08.485Z,46.63
2023-04-18T20:43:12.776Z,47.27
2023-04-18T20:46:16.196Z,47.10
2023-04-18T20:49:18.479Z,47.57
2023-04-18T20:52:23.991Z,47.71
2023-04-18T20:55:26.293Z,47.93
2023-04-18T20:58:29.724Z,47.61
2023-04-18T21:01:32.167Z,47.62
2023-04-18T21:04:34.634Z,47.64
2023-04-18T21:07:37.196Z,48.27
2023-04-18T21:10:39.959Z,47.53
2023-04-18T21:13:42.390Z,47.82
2023-04-18T21:16:44.849Z,48.00
2023-04-18T21:19:48.370Z,47.84
2023-04-18T21:22:50.794Z,47.50
2023-04-18T21:25:53.047Z,47.96
2023-04-18T21:29:05.475Z,48.26
2023-04-18T21:32:07.957Z,48.44
2023-04-18T21:35:10.357Z,48.64
2023-04-18T21:38:12.947Z,48.62
2023-04-18T21:41:16.919Z,48.89
2023-04-18T21:44:19.292Z,49.38
2023-04-18T21:47:22.152Z,49.34
2023-04-18T21:50:24.696Z,49.45
2023-04-18T21:53:26.948Z,49.92
2023-04-18T21:56:29.212Z,49.89
2023-04-18T21:59:31.880Z,50.37
2023-04-18T22:02:34.580Z,50.38
2023-04-18T22:05:39.220Z,50.62
2023-04-18T22:08:42.283Z,50.02
2023-04-18T22:11:44.569Z,50.08
2023-04-18T22:14:48.514Z,50.05
2023-04-18T22:17:50.862Z,49.65
2023-04-18T22:20:53.841Z,49.28
2023-04-18T22:23:56.208Z,49.12
2023-04-18T22:26:58.625Z,48.79
2023-04-18T22:30:01.031Z,48.93
2023-04-18T22:33:03.386Z,48.71
2023-04-18T22:36:06.062Z,48.72
2023-04-18T22:39:08.393Z,48.67
2023-04-18T22:42:10.737Z,48.31
2023-04-18T22:45:13.698Z,48.03
2023-04-18T22:48:17.085Z,48.27
2023-04-18T22:51:20.398Z,48.33
2023-04-18T22:54:22.741Z,48.72
2023-04-18T22:57:25.090Z,48.69
2023-04-18T23:00:27.434Z,49.00
2023-04-18T23:03:32.015Z,49.16
2023-04-18T23:06:36.752Z,48.36
2023-04-18T23:09:39.250Z,49.56
2023-04-18T23:12:41.727Z,49.15
2023-04-18T23:15:44.113Z,48.98
2023-04-18T23:18:46.526Z,49.86
2023-04-18T23:21:49.673Z,48.83
2023-04-18T23:24:52.338Z,48.54
2023-04-18T23:27:54.618Z,48.84
2023-04-18T23:30:56.871Z,48.75
2023-04-18T23:33:59.365Z,48.26
2023-04-18T23:37:01.667Z,48.64
2023-04-18T23:40:06.835Z,48.48
2023-04-18T23:43:09.461Z,48.59
2023-04-18T23:46:14.723Z,48.58
2023-04-18T23:49:17.019Z,48.62
2023-04-18T23:52:19.309Z,48.52
2023-04-18T23:55:21.739Z,49.08
2023-04-18T23:58:24.079Z,49.23
